sensor_id;sensor_type;location;lat;lon;timestamp;temperature;humidity
71084;DHT22;58741;52.672;13.548;2023-08-01T00:02:24;17.60;99.90
71084;DHT22;58741;52.672;13.548;2023-08-01T00:04:50;17.60;99.90
71084;DHT22;58741;52.672;13.548;2023-08-01T00:07:15;17.60;99.90
71084;DHT22;58741;52.672;13.548;2023-08-01T00:09:41;17.60;99.90
71084;DHT22;58741;52.672;13.548;2023-08-01T00:12:06;17.60;99.90
71084;DHT22;58741;52.672;13.548;2023-08-01T00:14:32;17.50;99.90
71084;DHT22;58741;52.672;13.548;2023-08-01T00:16:58;17.50;99.90
71084;DHT22;58741;52.672;13.548;2023-08-01T00:19:23;17.50;99.90
71084;DHT22;58741;52.672;13.548;2023-08-01T00:21:49;17.50;99.90
71084;DHT22;58741;52.672;13.548;2023-08-01T00:24:14;17.50;99.90
71084;DHT22;58741;52.672;13.548;2023-08-01T00:26:40;17.50;99.90
71084;DHT22;58741;52.672;13.548;2023-08-01T00:29:06;17.50;99.90
71084;DHT22;58741;52.672;13.548;2023-08-01T00:31:31;17.50;99.90
71084;DHT22;58741;52.672;13.548;2023-08-01T00:33:57;17.50;99.90
71084;DHT22;58741;52.672;13.548;2023-08-01T00:36:22;17.50;99.90
71084;DHT22;58741;52.672;13.548;2023-08-01T00:38:48;17.40;99.90
71084;DHT22;58741;52.672;13.548;2023-08-01T00:41:14;17.40;99.90
71084;DHT22;58741;52.672;13.548;2023-08-01T00:43:40;17.40;99.90
71084;DHT22;58741;52.672;13.548;2023-08-01T00:46:06;17.40;99.90
71084;DHT22;58741;52.672;13.548;2023-08-01T00:48:33;17.40;99.90
71084;DHT22;58741;52.672;13.548;2023-08-01T00:51:01;17.40;99.90
71084;DHT22;58741;52.672;13.548;2023-08-01T00:53:28;17.40;99.90
71084;DHT22;58741;52.672;13.548;2023-08-01T00:55:55;17.30;99.90
71084;DHT22;58741;52.672;13.548;2023-08-01T00:58:21;17.30;99.90
71084;DHT22;58741;52.672;13.548;2023-08-01T01:00:47;17.30;99.90
71084;DHT22;58741;52.672;13.548;2023-08-01T01:03:14;17.30;99.90
71084;DHT22;58741;52.672;13.548;2023-08-01T01:05:47;17.30;99.90
71084;DHT22;58741;52.672;13.548;2023-08-01T01:08:14;17.30;99.90
71084;DHT22;58741;52.672;13.548;2023-08-01T01:10:40;17.30;99.90
71084;DHT22;58741;52.672;13.548;2023-08-01T01:13:06;17.30;99.90
71084;DHT22;58741;52.672;13.548;2023-08-01T01:15:31;17.30;99.90
71084;DHT22;58741;52.672;13.548;2023-08-01T01:17:58;17.30;99.90
71084;DHT22;58741;52.672;13.548;2023-08-01T01:20:23;17.30;99.90
71084;DHT22;58741;52.672;13.548;2023-08-01T01:22:54;17.30;99.90
71084;DHT22;58741;52.672;13.548;2023-08-01T01:25:21;17.20;99.90
71084;DHT22;58741;52.672;13.548;2023-08-01T01:27:49;17.20;99.90
71084;DHT22;58741;52.672;13.548;2023-08-01T01:30:18;17.20;99.90
71084;DHT22;58741;52.672;13.548;2023-08-01T01:32:44;17.20;99.90
71084;DHT22;58741;52.672;13.548;2023-08-01T01:35:11;17.20;99.90
71084;DHT22;58741;52.672;13.548;2023-08-01T01:37:36;17.20;99.90
71084;DHT22;58741;52.672;13.548;2023-08-01T01:40:02;17.20;99.90
71084;DHT22;58741;52.672;13.548;2023-08-01T01:42:28;17.20;99.90
71084;DHT22;58741;52.672;13.548;2023-08-01T01:44:53;17.20;99.90
71084;DHT22;58741;52.672;13.548;2023-08-01T01:47:19;17.20;99.90
71084;DHT22;58741;52.672;13.548;2023-08-01T01:49:45;17.20;99.90
71084;DHT22;58741;52.672;13.548;2023-08-01T01:52:10;17.20;99.90
71084;DHT22;58741;52.672;13.548;2023-08-01T01:54:36;17.20;99.90
71084;DHT22;58741;52.672;13.548;2023-08-01T01:57:02;17.20;99.90
71084;DHT22;58741;52.672;13.548;2023-08-01T01:59:27;17.20;99.90
71084;DHT22;58741;52.672;13.548;2023-08-01T02:01:53;17.20;99.90
71084;DHT22;58741;52.672;13.548;2023-08-01T02:04:18;17.20;99.90
71084;DHT22;58741;52.672;13.548;2023-08-01T02:06:44;17.10;99.90
71084;DHT22;58741;52.672;13.548;2023-08-01T02:09:10;17.20;99.90
71084;DHT22;58741;52.672;13.548;2023-08-01T02:11:36;17.10;99.90
71084;DHT22;58741;52.672;13.548;2023-08-01T02:14:01;17.10;99.90
71084;DHT22;58741;52.672;13.548;2023-08-01T02:16:28;17.10;99.90
71084;DHT22;58741;52.672;13.548;2023-08-01T02:18:54;17.10;99.90
71084;DHT22;58741;52.672;13.548;2023-08-01T02:21:19;17.10;99.90
71084;DHT22;58741;52.672;13.548;2023-08-01T02:23:45;17.10;99.90
71084;DHT22;58741;52.672;13.548;2023-08-01T02:26:10;17.10;99.90
71084;DHT22;58741;52.672;13.548;2023-08-01T02:28:36;17.20;99.90
71084;DHT22;58741;52.672;13.548;2023-08-01T02:31:01;17.20;99.90
71084;DHT22;58741;52.672;13.548;2023-08-01T02:33:27;17.10;99.90
71084;DHT22;58741;52.672;13.548;2023-08-01T02:35:53;17.10;99.90
71084;DHT22;58741;52.672;13.548;2023-08-01T02:38:19;17.10;99.90
71084;DHT22;58741;52.672;13.548;2023-08-01T02:40:44;17.20;99.90
71084;DHT22;58741;52.672;13.548;2023-08-01T02:43:10;17.20;99.90
71084;DHT22;58741;52.672;13.548;2023-08-01T02:45:35;17.20;99.90
71084;DHT22;58741;52.672;13.548;2023-08-01T02:48:01;17.20;99.90
71084;DHT22;58741;52.672;13.548;2023-08-01T02:50:26;17.10;99.90
71084;DHT22;58741;52.672;13.548;2023-08-01T02:52:52;17.20;99.90
71084;DHT22;58741;52.672;13.548;2023-08-01T02:55:18;17.20;99.90
71084;DHT22;58741;52.672;13.548;2023-08-01T02:57:43;17.20;99.90
71084;DHT22;58741;52.672;13.548;2023-08-01T03:00:09;17.20;99.90
71084;DHT22;58741;52.672;13.548;2023-08-01T03:02:40;17.20;99.90
71084;DHT22;58741;52.672;13.548;2023-08-01T03:05:06;17.20;99.90
71084;DHT22;58741;52.672;13.548;2023-08-01T03:07:33;17.20;99.90
71084;DHT22;58741;52.672;13.548;2023-08-01T03:09:58;17.10;99.90
71084;DHT22;58741;52.672;13.548;2023-08-01T03:12:24;17.10;99.90
71084;DHT22;58741;52.672;13.548;2023-08-01T03:14:49;17.20;99.90
71084;DHT22;58741;52.672;13.548;2023-08-01T03:17:15;17.20;99.90
71084;DHT22;58741;52.672;13.548;2023-08-01T03:19:42;17.20;99.90
71084;DHT22;58741;52.672;13.548;2023-08-01T03:22:09;17.20;99.90
71084;DHT22;58741;52.672;13.548;2023-08-01T03:24:34;17.20;99.90
71084;DHT22;58741;52.672;13.548;2023-08-01T03:27:00;17.20;99.90
71084;DHT22;58741;52.672;13.548;2023-08-01T03:29:26;17.20;99.90
71084;DHT22;58741;52.672;13.548;2023-08-01T03:31:52;17.20;99.90
71084;DHT22;58741;52.672;13.548;2023-08-01T03:34:17;17.20;99.90
71084;DHT22;58741;52.672;13.548;2023-08-01T03:36:43;17.20;99.90
71084;DHT22;58741;52.672;13.548;2023-08-01T03:39:08;17.20;99.90
71084;DHT22;58741;52.672;13.548;2023-08-01T03:41:35;17.20;99.90
71084;DHT22;58741;52.672;13.548;2023-08-01T03:44:01;17.20;99.90
71084;DHT22;58741;52.672;13.548;2023-08-01T03:46:26;17.20;99.90
71084;DHT22;58741;52.672;13.548;2023-08-01T03:48:52;17.20;99.90
71084;DHT22;58741;52.672;13.548;2023-08-01T03:51:18;17.20;99.90
71084;DHT22;58741;52.672;13.548;2023-08-01T03:53:44;17.20;99.90
71084;DHT22;58741;52.672;13.548;2023-08-01T03:56:11;17.20;99.90
71084;DHT22;58741;52.672;13.548;2023-08-01T03:58:37;17.20;99.90
71084;DHT22;58741;52.672;13.548;2023-08-01T04:01:02;17.20;99.90
71084;DHT22;58741;52.672;13.548;2023-08-01T04:03:28;17.20;99.90
71084;DHT22;58741;52.672;13.548;2023-08-01T04:05:53;17.20;99.90
71084;DHT22;58741;52.672;13.548;2023-08-01T04:08:19;17.20;99.90
71084;DHT22;58741;52.672;13.548;2023-08-01T04:10:45;17.20;99.90
71084;DHT22;58741;52.672;13.548;2023-08-01T04:13:11;17.20;99.90
71084;DHT22;58741;52.672;13.548;2023-08-01T04:15:36;17.20;99.90
71084;DHT22;58741;52.672;13.548;2023-08-01T04:18:02;17.20;99.90
71084;DHT22;58741;52.672;13.548;2023-08-01T04:20:28;17.20;99.90
71084;DHT22;58741;52.672;13.548;2023-08-01T04:22:53;17.30;99.90
71084;DHT22;58741;52.672;13.548;2023-08-01T04:25:19;17.30;99.90
71084;DHT22;58741;52.672;13.548;2023-08-01T04:27:44;17.30;99.90
71084;DHT22;58741;52.672;13.548;2023-08-01T04:30:10;17.30;99.90
71084;DHT22;58741;52.672;13.548;2023-08-01T04:32:36;17.30;99.90
71084;DHT22;58741;52.672;13.548;2023-08-01T04:35:02;17.30;99.90
71084;DHT22;58741;52.672;13.548;2023-08-01T04:37:27;17.30;99.90
71084;DHT22;58741;52.672;13.548;2023-08-01T04:39:53;17.40;99.90
71084;DHT22;58741;52.672;13.548;2023-08-01T04:42:18;17.40;99.90
71084;DHT22;58741;52.672;13.548;2023-08-01T04:44:44;17.40;99.90
71084;DHT22;58741;52.672;13.548;2023-08-01T04:47:10;17.40;99.90
71084;DHT22;58741;52.672;13.548;2023-08-01T04:49:36;17.40;99.90
71084;DHT22;58741;52.672;13.548;2023-08-01T04:52:01;17.40;99.90
71084;DHT22;58741;52.672;13.548;2023-08-01T04:54:27;17.40;99.90
71084;DHT22;58741;52.672;13.548;2023-08-01T04:56:53;17.40;99.90
71084;DHT22;58741;52.672;13.548;2023-08-01T04:59:18;17.50;99.90
71084;DHT22;58741;52.672;13.548;2023-08-01T05:01:44;17.50;99.90
71084;DHT22;58741;52.672;13.548;2023-08-01T05:04:09;17.50;99.90
71084;DHT22;58741;52.672;13.548;2023-08-01T05:06:35;17.50;99.90
71084;DHT22;58741;52.672;13.548;2023-08-01T05:09:00;17.50;99.90
71084;DHT22;58741;52.672;13.548;2023-08-01T05:11:26;17.50;99.90
71084;DHT22;58741;52.672;13.548;2023-08-01T05:13:51;17.50;99.90
71084;DHT22;58741;52.672;13.548;2023-08-01T05:16:17;17.50;99.90
71084;DHT22;58741;52.672;13.548;2023-08-01T05:18:42;17.50;99.90
71084;DHT22;58741;52.672;13.548;2023-08-01T05:21:08;17.50;99.90
71084;DHT22;58741;52.672;13.548;2023-08-01T05:23:34;17.50;99.90
71084;DHT22;58741;52.672;13.548;2023-08-01T05:25:59;17.50;99.90
71084;DHT22;58741;52.672;13.548;2023-08-01T05:28:25;17.60;99.90
71084;DHT22;58741;52.672;13.548;2023-08-01T05:30:50;17.60;99.90
71084;DHT22;58741;52.672;13.548;2023-08-01T05:33:16;17.60;99.90
71084;DHT22;58741;52.672;13.548;2023-08-01T05:35:41;17.60;99.90
71084;DHT22;58741;52.672;13.548;2023-08-01T05:38:07;17.60;99.90
71084;DHT22;58741;52.672;13.548;2023-08-01T05:40:32;17.70;99.90
71084;DHT22;58741;52.672;13.548;2023-08-01T05:42:58;17.70;99.90
71084;DHT22;58741;52.672;13.548;2023-08-01T05:45:24;17.70;99.90
71084;DHT22;58741;52.672;13.548;2023-08-01T05:47:50;17.70;99.90
71084;DHT22;58741;52.672;13.548;2023-08-01T05:50:15;17.70;99.90
71084;DHT22;58741;52.672;13.548;2023-08-01T05:52:41;17.70;99.90
71084;DHT22;58741;52.672;13.548;2023-08-01T05:55:07;17.70;99.90
71084;DHT22;58741;52.672;13.548;2023-08-01T05:57:33;17.80;99.90
71084;DHT22;58741;52.672;13.548;2023-08-01T05:59:58;17.80;99.90
71084;DHT22;58741;52.672;13.548;2023-08-01T06:02:24;17.80;99.90
71084;DHT22;58741;52.672;13.548;2023-08-01T06:04:50;17.90;99.90
71084;DHT22;58741;52.672;13.548;2023-08-01T06:07:15;17.90;99.90
71084;DHT22;58741;52.672;13.548;2023-08-01T06:09:41;17.90;99.90
71084;DHT22;58741;52.672;13.548;2023-08-01T06:12:07;17.90;99.90
71084;DHT22;58741;52.672;13.548;2023-08-01T06:14:32;17.90;99.90
71084;DHT22;58741;52.672;13.548;2023-08-01T06:16:58;18.00;99.90
71084;DHT22;58741;52.672;13.548;2023-08-01T06:19:24;18.00;99.90
71084;DHT22;58741;52.672;13.548;2023-08-01T06:21:49;18.00;99.90
71084;DHT22;58741;52.672;13.548;2023-08-01T06:24:15;18.00;99.90
71084;DHT22;58741;52.672;13.548;2023-08-01T06:26:41;18.00;99.90
71084;DHT22;58741;52.672;13.548;2023-08-01T06:29:06;18.00;99.90
71084;DHT22;58741;52.672;13.548;2023-08-01T06:31:32;18.10;99.90
71084;DHT22;58741;52.672;13.548;2023-08-01T06:33:57;18.10;99.90
71084;DHT22;58741;52.672;13.548;2023-08-01T06:36:23;18.10;99.90
71084;DHT22;58741;52.672;13.548;2023-08-01T06:38:48;18.10;99.90
71084;DHT22;58741;52.672;13.548;2023-08-01T06:41:14;18.10;99.90
71084;DHT22;58741;52.672;13.548;2023-08-01T06:43:40;18.10;99.90
71084;DHT22;58741;52.672;13.548;2023-08-01T06:46:05;18.20;99.90
71084;DHT22;58741;52.672;13.548;2023-08-01T06:48:31;18.20;99.90
71084;DHT22;58741;52.672;13.548;2023-08-01T06:51:00;18.20;99.90
71084;DHT22;58741;52.672;13.548;2023-08-01T06:53:26;18.20;99.90
71084;DHT22;58741;52.672;13.548;2023-08-01T06:55:52;18.20;99.90
71084;DHT22;58741;52.672;13.548;2023-08-01T06:58:17;18.20;99.90
71084;DHT22;58741;52.672;13.548;2023-08-01T07:00:44;18.20;99.90
71084;DHT22;58741;52.672;13.548;2023-08-01T07:03:09;18.20;99.90
71084;DHT22;58741;52.672;13.548;2023-08-01T07:05:35;18.20;99.90
71084;DHT22;58741;52.672;13.548;2023-08-01T07:08:00;18.30;99.90
71084;DHT22;58741;52.672;13.548;2023-08-01T07:10:26;18.30;99.90
71084;DHT22;58741;52.672;13.548;2023-08-01T07:12:51;18.30;99.90
71084;DHT22;58741;52.672;13.548;2023-08-01T07:15:17;18.30;99.90
71084;DHT22;58741;52.672;13.548;2023-08-01T07:17:43;18.30;99.90
71084;DHT22;58741;52.672;13.548;2023-08-01T07:20:08;18.30;99.90
71084;DHT22;58741;52.672;13.548;2023-08-01T07:22:34;18.30;99.90
71084;DHT22;58741;52.672;13.548;2023-08-01T07:25:00;18.40;99.90
71084;DHT22;58741;52.672;13.548;2023-08-01T07:27:25;18.40;99.90
71084;DHT22;58741;52.672;13.548;2023-08-01T07:29:52;18.40;99.90
71084;DHT22;58741;52.672;13.548;2023-08-01T07:32:17;18.40;99.90
71084;DHT22;58741;52.672;13.548;2023-08-01T07:34:43;18.50;99.90
71084;DHT22;58741;52.672;13.548;2023-08-01T07:37:09;18.50;99.90
71084;DHT22;58741;52.672;13.548;2023-08-01T07:39:34;18.60;99.90
71084;DHT22;58741;52.672;13.548;2023-08-01T07:42:00;18.60;99.90
71084;DHT22;58741;52.672;13.548;2023-08-01T07:44:26;18.70;99.90
71084;DHT22;58741;52.672;13.548;2023-08-01T07:46:51;18.70;99.90
71084;DHT22;58741;52.672;13.548;2023-08-01T07:49:17;18.80;99.90
71084;DHT22;58741;52.672;13.548;2023-08-01T07:51:43;18.90;99.90
71084;DHT22;58741;52.672;13.548;2023-08-01T07:54:09;18.90;99.90
71084;DHT22;58741;52.672;13.548;2023-08-01T07:56:35;19.00;99.90
71084;DHT22;58741;52.672;13.548;2023-08-01T07:59:00;19.10;99.90
71084;DHT22;58741;52.672;13.548;2023-08-01T08:01:26;19.10;99.90
71084;DHT22;58741;52.672;13.548;2023-08-01T08:03:51;19.20;99.90
71084;DHT22;58741;52.672;13.548;2023-08-01T08:06:17;19.20;99.90
71084;DHT22;58741;52.672;13.548;2023-08-01T08:08:43;19.30;99.90
71084;DHT22;58741;52.672;13.548;2023-08-01T08:11:08;19.30;99.90
71084;DHT22;58741;52.672;13.548;2023-08-01T08:13:34;19.40;99.90
71084;DHT22;58741;52.672;13.548;2023-08-01T08:15:59;19.40;99.90
71084;DHT22;58741;52.672;13.548;2023-08-01T08:18:25;19.50;99.90
71084;DHT22;58741;52.672;13.548;2023-08-01T08:20:51;19.50;99.90
71084;DHT22;58741;52.672;13.548;2023-08-01T08:23:16;19.60;99.90
71084;DHT22;58741;52.672;13.548;2023-08-01T08:25:43;19.80;99.90
71084;DHT22;58741;52.672;13.548;2023-08-01T08:28:11;19.80;99.90
71084;DHT22;58741;52.672;13.548;2023-08-01T08:30:37;19.90;99.90
71084;DHT22;58741;52.672;13.548;2023-08-01T08:33:03;20.00;99.90
71084;DHT22;58741;52.672;13.548;2023-08-01T08:35:32;20.10;99.90
71084;DHT22;58741;52.672;13.548;2023-08-01T08:38:01;20.10;99.90
71084;DHT22;58741;52.672;13.548;2023-08-01T08:40:27;20.20;99.90
71084;DHT22;58741;52.672;13.548;2023-08-01T08:42:52;20.20;99.90
71084;DHT22;58741;52.672;13.548;2023-08-01T08:45:19;20.20;99.90
71084;DHT22;58741;52.672;13.548;2023-08-01T08:47:51;20.20;99.90
71084;DHT22;58741;52.672;13.548;2023-08-01T08:50:19;20.20;99.90
71084;DHT22;58741;52.672;13.548;2023-08-01T08:52:45;20.20;99.90
71084;DHT22;58741;52.672;13.548;2023-08-01T08:55:11;20.20;99.90
71084;DHT22;58741;52.672;13.548;2023-08-01T08:57:37;20.30;99.90
71084;DHT22;58741;52.672;13.548;2023-08-01T09:00:05;20.40;99.90
71084;DHT22;58741;52.672;13.548;2023-08-01T09:02:32;20.50;99.90
71084;DHT22;58741;52.672;13.548;2023-08-01T09:04:58;20.60;99.90
71084;DHT22;58741;52.672;13.548;2023-08-01T09:07:24;20.70;99.90
71084;DHT22;58741;52.672;13.548;2023-08-01T09:09:51;20.80;99.90
71084;DHT22;58741;52.672;13.548;2023-08-01T09:12:16;20.80;99.90
71084;DHT22;58741;52.672;13.548;2023-08-01T09:14:42;20.80;99.90
71084;DHT22;58741;52.672;13.548;2023-08-01T09:17:08;20.90;99.90
71084;DHT22;58741;52.672;13.548;2023-08-01T09:19:34;20.90;99.90
71084;DHT22;58741;52.672;13.548;2023-08-01T09:22:00;20.90;99.90
71084;DHT22;58741;52.672;13.548;2023-08-01T09:24:25;20.90;99.90
71084;DHT22;58741;52.672;13.548;2023-08-01T09:26:51;20.90;99.90
71084;DHT22;58741;52.672;13.548;2023-08-01T09:29:17;21.00;99.90
71084;DHT22;58741;52.672;13.548;2023-08-01T09:31:43;21.10;99.90
71084;DHT22;58741;52.672;13.548;2023-08-01T09:36:45;21.30;99.90
71084;DHT22;58741;52.672;13.548;2023-08-01T09:39:19;21.40;99.90
71084;DHT22;58741;52.672;13.548;2023-08-01T09:41:45;21.60;99.90
71084;DHT22;58741;52.672;13.548;2023-08-01T09:44:12;21.60;99.90
71084;DHT22;58741;52.672;13.548;2023-08-01T09:46:38;21.70;99.90
71084;DHT22;58741;52.672;13.548;2023-08-01T09:49:11;21.80;99.90
71084;DHT22;58741;52.672;13.548;2023-08-01T09:51:49;21.90;99.90
71084;DHT22;58741;52.672;13.548;2023-08-01T09:54:16;21.90;99.90
71084;DHT22;58741;52.672;13.548;2023-08-01T09:56:46;21.90;99.90
71084;DHT22;58741;52.672;13.548;2023-08-01T09:59:13;21.90;99.90
71084;DHT22;58741;52.672;13.548;2023-08-01T10:01:44;21.80;99.90
71084;DHT22;58741;52.672;13.548;2023-08-01T10:04:10;21.70;99.90
71084;DHT22;58741;52.672;13.548;2023-08-01T10:06:37;21.60;99.90
71084;DHT22;58741;52.672;13.548;2023-08-01T10:09:04;21.50;99.90
71084;DHT22;58741;52.672;13.548;2023-08-01T10:11:33;21.40;99.90
71084;DHT22;58741;52.672;13.548;2023-08-01T10:14:00;21.30;99.90
71084;DHT22;58741;52.672;13.548;2023-08-01T10:16:28;21.30;99.90
71084;DHT22;58741;52.672;13.548;2023-08-01T10:18:54;21.30;99.90
71084;DHT22;58741;52.672;13.548;2023-08-01T10:21:21;21.30;99.90
71084;DHT22;58741;52.672;13.548;2023-08-01T10:23:47;21.30;99.90
71084;DHT22;58741;52.672;13.548;2023-08-01T10:26:14;21.30;99.90
71084;DHT22;58741;52.672;13.548;2023-08-01T10:28:41;21.30;99.90
71084;DHT22;58741;52.672;13.548;2023-08-01T10:31:12;21.30;99.90
71084;DHT22;58741;52.672;13.548;2023-08-01T10:33:39;21.20;99.90
71084;DHT22;58741;52.672;13.548;2023-08-01T10:36:19;21.20;99.90
71084;DHT22;58741;52.672;13.548;2023-08-01T10:38:53;21.20;99.90
71084;DHT22;58741;52.672;13.548;2023-08-01T10:43:45;21.20;99.90
71084;DHT22;58741;52.672;13.548;2023-08-01T10:46:10;21.10;99.90
71084;DHT22;58741;52.672;13.548;2023-08-01T10:48:48;21.10;99.90
71084;DHT22;58741;52.672;13.548;2023-08-01T10:51:14;21.00;99.90
71084;DHT22;58741;52.672;13.548;2023-08-01T10:53:40;21.00;99.90
71084;DHT22;58741;52.672;13.548;2023-08-01T10:56:05;20.90;99.90
71084;DHT22;58741;52.672;13.548;2023-08-01T10:58:33;20.80;99.90
71084;DHT22;58741;52.672;13.548;2023-08-01T11:01:00;20.60;99.90
71084;DHT22;58741;52.672;13.548;2023-08-01T11:03:38;20.50;99.90
71084;DHT22;58741;52.672;13.548;2023-08-01T11:06:04;20.30;99.90
71084;DHT22;58741;52.672;13.548;2023-08-01T11:08:40;20.20;99.90
71084;DHT22;58741;52.672;13.548;2023-08-01T11:11:08;20.00;99.90
71084;DHT22;58741;52.672;13.548;2023-08-01T11:13:36;19.90;99.90
71084;DHT22;58741;52.672;13.548;2023-08-01T11:16:03;19.90;99.90
71084;DHT22;58741;52.672;13.548;2023-08-01T11:18:29;19.70;99.90
71084;DHT22;58741;52.672;13.548;2023-08-01T11:20:56;19.60;99.90
71084;DHT22;58741;52.672;13.548;2023-08-01T11:23:28;19.40;99.90
71084;DHT22;58741;52.672;13.548;2023-08-01T11:25:54;19.30;99.90
71084;DHT22;58741;52.672;13.548;2023-08-01T11:28:20;19.20;99.90
71084;DHT22;58741;52.672;13.548;2023-08-01T11:30:46;19.10;99.90
71084;DHT22;58741;52.672;13.548;2023-08-01T11:33:20;19.00;99.90
71084;DHT22;58741;52.672;13.548;2023-08-01T11:35:49;18.90;99.90
71084;DHT22;58741;52.672;13.548;2023-08-01T11:38:15;19.00;99.90
71084;DHT22;58741;52.672;13.548;2023-08-01T11:40:40;19.10;99.90
71084;DHT22;58741;52.672;13.548;2023-08-01T11:43:07;19.10;99.90
71084;DHT22;58741;52.672;13.548;2023-08-01T11:45:32;19.10;99.90
71084;DHT22;58741;52.672;13.548;2023-08-01T11:47:58;19.10;99.90
71084;DHT22;58741;52.672;13.548;2023-08-01T11:50:25;19.20;99.90
71084;DHT22;58741;52.672;13.548;2023-08-01T11:52:51;19.20;99.90
71084;DHT22;58741;52.672;13.548;2023-08-01T11:55:22;19.30;99.90
71084;DHT22;58741;52.672;13.548;2023-08-01T11:57:57;19.30;99.90
71084;DHT22;58741;52.672;13.548;2023-08-01T12:00:28;19.40;99.90
71084;DHT22;58741;52.672;13.548;2023-08-01T12:03:14;19.40;99.90
71084;DHT22;58741;52.672;13.548;2023-08-01T12:05:40;19.50;99.90
71084;DHT22;58741;52.672;13.548;2023-08-01T12:08:13;19.60;99.90
71084;DHT22;58741;52.672;13.548;2023-08-01T12:10:43;19.60;99.90
71084;DHT22;58741;52.672;13.548;2023-08-01T12:13:20;19.80;99.90
71084;DHT22;58741;52.672;13.548;2023-08-01T12:15:47;19.80;99.90
71084;DHT22;58741;52.672;13.548;2023-08-01T12:18:29;19.70;99.90
71084;DHT22;58741;52.672;13.548;2023-08-01T12:20:55;19.70;99.90
71084;DHT22;58741;52.672;13.548;2023-08-01T12:23:21;19.80;99.90
71084;DHT22;58741;52.672;13.548;2023-08-01T12:25:47;19.80;99.90
71084;DHT22;58741;52.672;13.548;2023-08-01T12:28:16;19.90;99.90
71084;DHT22;58741;52.672;13.548;2023-08-01T12:30:42;20.00;99.90
71084;DHT22;58741;52.672;13.548;2023-08-01T12:33:08;20.00;99.90
71084;DHT22;58741;52.672;13.548;2023-08-01T12:35:38;20.00;99.90
71084;DHT22;58741;52.672;13.548;2023-08-01T12:38:04;20.00;99.90
71084;DHT22;58741;52.672;13.548;2023-08-01T12:40:29;20.20;99.90
71084;DHT22;58741;52.672;13.548;2023-08-01T12:42:55;20.30;99.90
71084;DHT22;58741;52.672;13.548;2023-08-01T12:45:20;20.40;99.90
71084;DHT22;58741;52.672;13.548;2023-08-01T12:47:46;20.40;99.90
71084;DHT22;58741;52.672;13.548;2023-08-01T12:50:12;20.40;99.90
71084;DHT22;58741;52.672;13.548;2023-08-01T12:52:37;20.50;99.90
71084;DHT22;58741;52.672;13.548;2023-08-01T12:55:03;20.60;99.90
71084;DHT22;58741;52.672;13.548;2023-08-01T12:57:29;20.80;99.90
71084;DHT22;58741;52.672;13.548;2023-08-01T12:59:54;20.90;99.90
71084;DHT22;58741;52.672;13.548;2023-08-01T13:02:20;20.90;99.90
71084;DHT22;58741;52.672;13.548;2023-08-01T13:04:45;21.00;99.90
71084;DHT22;58741;52.672;13.548;2023-08-01T13:07:11;20.90;99.90
71084;DHT22;58741;52.672;13.548;2023-08-01T13:09:36;20.90;99.90
71084;DHT22;58741;52.672;13.548;2023-08-01T13:12:02;21.00;99.90
71084;DHT22;58741;52.672;13.548;2023-08-01T13:14:28;21.10;99.90
71084;DHT22;58741;52.672;13.548;2023-08-01T13:16:54;21.30;99.90
71084;DHT22;58741;52.672;13.548;2023-08-01T13:19:19;21.30;99.90
71084;DHT22;58741;52.672;13.548;2023-08-01T13:21:45;21.20;99.90
71084;DHT22;58741;52.672;13.548;2023-08-01T13:24:10;21.30;99.90
71084;DHT22;58741;52.672;13.548;2023-08-01T13:26:36;21.40;99.90
71084;DHT22;58741;52.672;13.548;2023-08-01T13:29:01;21.50;99.90
71084;DHT22;58741;52.672;13.548;2023-08-01T13:31:27;21.50;99.70
71084;DHT22;58741;52.672;13.548;2023-08-01T13:33:53;21.60;99.80
71084;DHT22;58741;52.672;13.548;2023-08-01T13:36:19;21.70;99.90
71084;DHT22;58741;52.672;13.548;2023-08-01T13:38:44;21.70;99.90
71084;DHT22;58741;52.672;13.548;2023-08-01T13:41:10;21.80;99.00
71084;DHT22;58741;52.672;13.548;2023-08-01T13:43:36;21.80;98.00
71084;DHT22;58741;52.672;13.548;2023-08-01T13:46:16;21.70;99.30
71084;DHT22;58741;52.672;13.548;2023-08-01T13:48:46;21.70;99.90
71084;DHT22;58741;52.672;13.548;2023-08-01T13:51:12;21.90;99.90
71084;DHT22;58741;52.672;13.548;2023-08-01T13:53:38;22.00;99.90
71084;DHT22;58741;52.672;13.548;2023-08-01T13:56:07;22.30;99.80
71084;DHT22;58741;52.672;13.548;2023-08-01T13:58:33;22.50;99.30
71084;DHT22;58741;52.672;13.548;2023-08-01T14:01:02;22.60;98.20
71084;DHT22;58741;52.672;13.548;2023-08-01T14:03:30;22.60;98.20
71084;DHT22;58741;52.672;13.548;2023-08-01T14:05:55;22.50;97.90
71084;DHT22;58741;52.672;13.548;2023-08-01T14:08:22;22.50;97.10
71084;DHT22;58741;52.672;13.548;2023-08-01T14:10:47;22.40;98.30
71084;DHT22;58741;52.672;13.548;2023-08-01T14:13:13;22.60;97.90
71084;DHT22;58741;52.672;13.548;2023-08-01T14:15:38;22.80;99.90
71084;DHT22;58741;52.672;13.548;2023-08-01T14:18:04;23.00;99.90
71084;DHT22;58741;52.672;13.548;2023-08-01T14:20:29;23.10;99.70
71084;DHT22;58741;52.672;13.548;2023-08-01T14:22:55;23.30;99.00
71084;DHT22;58741;52.672;13.548;2023-08-01T14:25:20;23.50;98.60
71084;DHT22;58741;52.672;13.548;2023-08-01T14:27:46;23.60;98.90
71084;DHT22;58741;52.672;13.548;2023-08-01T14:30:12;23.80;97.50
71084;DHT22;58741;52.672;13.548;2023-08-01T14:32:37;23.90;93.80
71084;DHT22;58741;52.672;13.548;2023-08-01T14:35:04;23.90;92.20
71084;DHT22;58741;52.672;13.548;2023-08-01T14:37:30;23.80;91.60
71084;DHT22;58741;52.672;13.548;2023-08-01T14:39:56;23.60;93.30
71084;DHT22;58741;52.672;13.548;2023-08-01T14:42:21;23.70;94.70
71084;DHT22;58741;52.672;13.548;2023-08-01T14:44:53;23.70;95.20
71084;DHT22;58741;52.672;13.548;2023-08-01T14:47:20;23.50;93.20
71084;DHT22;58741;52.672;13.548;2023-08-01T14:49:45;23.30;93.90
71084;DHT22;58741;52.672;13.548;2023-08-01T14:52:11;23.30;95.80
71084;DHT22;58741;52.672;13.548;2023-08-01T14:54:37;23.20;95.10
71084;DHT22;58741;52.672;13.548;2023-08-01T14:57:04;23.20;93.80
71084;DHT22;58741;52.672;13.548;2023-08-01T14:59:30;23.20;96.20
71084;DHT22;58741;52.672;13.548;2023-08-01T15:01:56;23.20;95.90
71084;DHT22;58741;52.672;13.548;2023-08-01T15:04:21;23.30;95.40
71084;DHT22;58741;52.672;13.548;2023-08-01T15:06:47;23.50;90.50
71084;DHT22;58741;52.672;13.548;2023-08-01T15:09:12;23.40;87.60
71084;DHT22;58741;52.672;13.548;2023-08-01T15:11:38;23.20;92.30
71084;DHT22;58741;52.672;13.548;2023-08-01T15:14:03;23.00;89.80
71084;DHT22;58741;52.672;13.548;2023-08-01T15:16:29;22.80;91.10